Time;durP1;ratioP1;P1;durP2;ratioP2;P2;SDS_P1;SDS_P2;PMS_P1;PMS_P2;Temp;Humidity;BMP_temperature;BMP_pressure;BME280_temperature;BME280_humidity;BME280_pressure;Samples;Min_cycle;Max_cycle;Signal;HPM_P1;HPM_P2
2021/05/09 00:00:54;;;;;;;1.40;0.50;;;10.40;74.80;;;;;;5036537;28;20022;-71
2021/05/09 00:03:21;;;;;;;2.88;0.60;;;10.50;74.40;;;;;;5036560;28;20028;-71
2021/05/09 00:05:47;;;;;;;0.85;0.50;;;10.70;72.80;;;;;;5036407;28;20025;-71
2021/05/09 00:08:14;;;;;;;0.85;0.40;;;10.80;74.20;;;;;;5036418;28;20017;-71
2021/05/09 00:10:40;;;;;;;1.13;0.63;;;10.70;75.00;;;;;;5036432;28;20077;-71
2021/05/09 00:13:06;;;;;;;2.28;0.63;;;10.70;74.20;;;;;;5036462;28;20026;-71
2021/05/09 00:15:32;;;;;;;0.90;0.57;;;10.60;74.90;;;;;;5036296;28;20024;-71
2021/05/09 00:17:57;;;;;;;1.55;0.60;;;10.60;75.10;;;;;;5035926;28;20077;-71
2021/05/09 00:20:23;;;;;;;1.95;0.60;;;10.50;75.30;;;;;;5036313;28;20032;-71
2021/05/09 00:22:49;;;;;;;0.85;0.40;;;10.40;76.70;;;;;;5036138;28;20037;-71
2021/05/09 00:25:15;;;;;;;0.80;0.47;;;10.40;76.50;;;;;;5036286;28;20060;-71
2021/05/09 00:27:41;;;;;;;1.35;0.50;;;10.40;76.70;;;;;;5036279;28;20025;-71
2021/05/09 00:30:08;;;;;;;2.40;0.40;;;10.40;77.00;;;;;;5035899;28;20388;-71
2021/05/09 00:32:34;;;;;;;4.72;0.60;;;10.30;77.90;;;;;;5037995;28;20025;-71
2021/05/09 00:35:00;;;;;;;1.60;0.60;;;10.30;78.20;;;;;;5039773;28;20017;-71
2021/05/09 00:37:26;;;;;;;1.77;0.60;;;10.30;78.00;;;;;;5039739;28;20405;-71
2021/05/09 00:39:52;;;;;;;0.95;0.55;;;10.30;78.60;;;;;;5039717;28;20021;-71
2021/05/09 00:42:17;;;;;;;1.65;0.50;;;10.40;77.90;;;;;;5039698;28;20040;-71
2021/05/09 00:44:43;;;;;;;4.25;0.50;;;10.50;77.20;;;;;;5039223;28;20053;-71
2021/05/09 00:47:11;;;;;;;4.32;1.45;;;10.60;76.90;;;;;;5039296;28;20079;-71
2021/05/09 00:49:37;;;;;;;1.95;1.00;;;10.60;76.20;;;;;;5039134;28;20061;-71
2021/05/09 00:52:05;;;;;;;5.57;1.40;;;10.80;72.60;;;;;;5039522;28;20104;-71
2021/05/09 00:54:33;;;;;;;2.47;1.38;;;11.00;69.70;;;;;;5039060;28;20029;-73
2021/05/09 00:57:00;;;;;;;2.08;1.08;;;11.20;67.80;;;;;;5039310;28;20026;-72
2021/05/09 00:59:28;;;;;;;2.05;1.25;;;11.40;67.90;;;;;;5039361;28;20033;-72
2021/05/09 01:01:55;;;;;;;1.70;1.00;;;11.40;67.00;;;;;;5039059;28;20087;-72
2021/05/09 01:04:21;;;;;;;1.98;1.23;;;11.50;66.40;;;;;;5039231;28;20076;-72
2021/05/09 01:06:48;;;;;;;4.13;1.40;;;11.60;65.90;;;;;;5039171;28;20029;-72
2021/05/09 01:09:13;;;;;;;4.35;1.70;;;11.70;66.10;;;;;;5038830;28;20029;-72
2021/05/09 01:11:41;;;;;;;3.65;1.65;;;11.80;66.50;;;;;;5039170;28;20079;-72
2021/05/09 01:14:07;;;;;;;5.78;1.70;;;11.80;66.10;;;;;;5039015;28;20104;-72
2021/05/09 01:16:33;;;;;;;3.30;1.73;;;11.80;66.30;;;;;;5038758;28;20417;-72
2021/05/09 01:18:58;;;;;;;5.07;1.30;;;11.80;66.90;;;;;;5038543;28;20053;-72
2021/05/09 01:21:24;;;;;;;1.90;1.00;;;11.70;66.70;;;;;;5039011;28;20045;-72
2021/05/09 01:23:50;;;;;;;2.10;1.20;;;11.60;68.80;;;;;;5038962;28;20400;-72
2021/05/09 01:26:15;;;;;;;2.80;1.10;;;11.50;69.60;;;;;;5038852;28;20033;-72
2021/05/09 01:28:41;;;;;;;2.60;1.00;;;11.40;70.50;;;;;;5038407;28;20410;-72
2021/05/09 01:31:07;;;;;;;4.30;0.85;;;11.30;71.00;;;;;;5038774;28;20045;-72
2021/05/09 01:33:33;;;;;;;2.22;0.85;;;11.20;71.50;;;;;;5038710;28;20109;-72
2021/05/09 01:35:59;;;;;;;2.00;1.27;;;11.10;72.40;;;;;;5038651;28;20032;-72
2021/05/09 01:38:24;;;;;;;1.73;0.80;;;11.10;73.50;;;;;;5038626;28;20025;-72
2021/05/09 01:40:50;;;;;;;2.88;0.73;;;11.00;74.40;;;;;;5038577;28;20017;-73
2021/05/09 01:43:16;;;;;;;1.80;0.70;;;11.00;75.00;;;;;;5037584;28;20030;-72
2021/05/09 01:45:41;;;;;;;2.30;0.60;;;11.00;75.40;;;;;;5038316;28;20287;-73
2021/05/09 01:48:07;;;;;;;1.90;0.60;;;11.00;75.30;;;;;;5038470;28;20401;-73
2021/05/09 01:50:33;;;;;;;3.42;0.68;;;11.00;75.50;;;;;;5038343;28;20345;-74
2021/05/09 01:53:03;;;;;;;5.13;0.82;;;11.00;75.20;;;;;;5038358;28;20041;-74
2021/05/09 01:55:29;;;;;;;1.27;0.70;;;11.10;75.40;;;;;;5037905;28;20108;-74
2021/05/09 01:57:55;;;;;;;2.00;0.60;;;11.10;76.50;;;;;;5038246;28;20363;-74
2021/05/09 02:00:22;;;;;;;3.25;0.70;;;11.00;77.20;;;;;;5038168;28;20025;-72
2021/05/09 02:02:48;;;;;;;2.75;0.65;;;11.00;77.00;;;;;;5037883;28;20025;-72
2021/05/09 02:05:15;;;;;;;5.00;0.70;;;10.90;78.10;;;;;;5038050;28;20057;-72
2021/05/09 02:07:41;;;;;;;3.63;0.70;;;10.80;77.30;;;;;;5038047;28;20022;-72
2021/05/09 02:10:10;;;;;;;2.80;0.75;;;10.70;77.50;;;;;;5037936;28;20049;-72
2021/05/09 02:12:36;;;;;;;5.05;1.02;;;10.60;76.80;;;;;;5037689;28;20422;-72
2021/05/09 02:15:04;;;;;;;1.40;0.90;;;10.60;77.10;;;;;;5037851;28;20072;-72
2021/05/09 02:17:30;;;;;;;2.15;0.55;;;10.60;77.00;;;;;;5037638;28;20065;-72
2021/05/09 02:19:56;;;;;;;2.40;0.70;;;10.50;78.30;;;;;;5037584;28;20060;-72
2021/05/09 02:22:22;;;;;;;1.55;0.70;;;10.50;78.10;;;;;;5037824;28;20032;-72
2021/05/09 02:24:48;;;;;;;7.35;0.88;;;10.40;79.00;;;;;;5037862;28;20033;-72
2021/05/09 02:27:13;;;;;;;2.67;0.70;;;10.40;78.70;;;;;;5037371;28;20432;-72
2021/05/09 02:29:39;;;;;;;5.32;0.52;;;10.40;78.70;;;;;;5037288;28;20021;-72
2021/05/09 02:32:05;;;;;;;2.05;1.25;;;10.30;78.50;;;;;;5037653;28;20120;-72
2021/05/09 02:34:32;;;;;;;4.65;0.63;;;10.30;79.20;;;;;;5037233;28;20433;-72
2021/05/09 02:36:57;;;;;;;3.42;1.33;;;10.30;78.80;;;;;;5037178;28;20043;-72
2021/05/09 02:39:23;;;;;;;1.08;0.60;;;10.30;79.70;;;;;;5037523;28;20025;-72
2021/05/09 02:41:49;;;;;;;3.47;0.85;;;10.20;78.70;;;;;;5037458;28;20385;-72
2021/05/09 02:44:15;;;;;;;1.90;0.50;;;10.20;79.30;;;;;;5037398;28;20049;-71
2021/05/09 02:46:40;;;;;;;5.85;0.73;;;10.10;79.10;;;;;;5037384;28;20032;-72
2021/05/09 02:49:06;;;;;;;1.63;0.60;;;10.10;79.70;;;;;;5036939;28;20064;-72
2021/05/09 02:51:32;;;;;;;2.67;0.60;;;10.10;79.20;;;;;;5037025;28;20035;-72
2021/05/09 02:53:59;;;;;;;1.52;0.73;;;10.10;78.70;;;;;;5037305;28;20025;-72
2021/05/09 02:56:24;;;;;;;2.58;0.70;;;10.10;78.60;;;;;;5036821;28;20041;-72
2021/05/09 02:58:50;;;;;;;2.67;0.60;;;10.00;79.10;;;;;;5036865;28;20029;-72
2021/05/09 03:01:16;;;;;;;2.72;0.98;;;10.00;78.80;;;;;;5037242;28;20033;-72
2021/05/09 03:03:41;;;;;;;3.72;0.70;;;10.10;78.80;;;;;;5036806;28;20418;-72
2021/05/09 03:06:07;;;;;;;3.25;0.52;;;10.10;78.80;;;;;;5036842;28;20079;-72
2021/05/09 03:08:34;;;;;;;1.35;0.45;;;10.10;79.70;;;;;;5036694;28;20036;-72
2021/05/09 03:11:00;;;;;;;0.98;0.50;;;10.00;80.10;;;;;;5036740;28;20036;-72
2021/05/09 03:13:26;;;;;;;1.50;0.60;;;10.00;78.90;;;;;;5036756;28;20111;-72
2021/05/09 03:15:52;;;;;;;2.30;0.60;;;10.00;80.20;;;;;;5036876;28;20041;-72
2021/05/09 03:18:18;;;;;;;1.50;0.80;;;10.10;79.10;;;;;;5036673;28;20394;-72
2021/05/09 03:20:43;;;;;;;2.55;0.60;;;10.10;78.90;;;;;;5036896;28;20083;-72
2021/05/09 03:23:09;;;;;;;0.88;0.60;;;10.00;79.40;;;;;;5036735;28;20312;-72
2021/05/09 03:25:35;;;;;;;1.60;0.50;;;9.90;79.10;;;;;;5036837;28;20044;-72
2021/05/09 03:28:01;;;;;;;0.68;0.40;;;9.90;79.20;;;;;;5036899;28;20037;-72
2021/05/09 03:30:26;;;;;;;2.10;0.70;;;9.90;79.20;;;;;;5036444;28;20033;-72
2021/05/09 03:32:55;;;;;;;2.75;0.55;;;9.90;79.10;;;;;;5036873;28;20021;-72
2021/05/09 03:35:24;;;;;;;2.10;0.50;;;9.90;79.70;;;;;;5036399;28;20049;-72
2021/05/09 03:37:50;;;;;;;1.02;0.65;;;9.90;79.60;;;;;;5036497;28;20021;-72
2021/05/09 03:40:16;;;;;;;2.78;0.70;;;9.90;80.20;;;;;;5036681;28;20101;-72
2021/05/09 03:42:42;;;;;;;1.15;0.57;;;9.90;80.30;;;;;;5036453;28;20037;-72
2021/05/09 03:45:08;;;;;;;1.35;0.60;;;9.80;79.80;;;;;;5036636;28;20025;-72
2021/05/09 03:47:36;;;;;;;1.63;0.70;;;9.80;79.40;;;;;;5036356;28;20376;-72
2021/05/09 03:50:02;;;;;;;1.30;0.60;;;9.80;79.60;;;;;;5036542;28;20037;-72
2021/05/09 03:52:28;;;;;;;3.22;0.70;;;9.90;80.50;;;;;;5036285;28;20021;-72
2021/05/09 03:54:54;;;;;;;2.30;0.73;;;9.90;80.40;;;;;;5036280;28;20036;-72
2021/05/09 03:57:20;;;;;;;1.88;0.70;;;9.90;79.30;;;;;;5036577;28;20022;-72
2021/05/09 03:59:45;;;;;;;4.07;0.70;;;9.90;79.10;;;;;;5036294;28;20326;-72
2021/05/09 04:02:11;;;;;;;4.57;1.05;;;9.90;79.40;;;;;;5036592;28;20164;-72
2021/05/09 04:04:37;;;;;;;1.90;0.93;;;10.00;80.00;;;;;;5036470;28;20037;-72
2021/05/09 04:07:03;;;;;;;4.03;0.68;;;10.00;80.00;;;;;;5037525;28;20419;-71
2021/05/09 04:09:29;;;;;;;1.50;0.90;;;10.00;79.50;;;;;;5040250;28;20128;-72
2021/05/09 04:11:55;;;;;;;5.05;1.10;;;10.10;78.80;;;;;;5039996;28;20022;-72
2021/05/09 04:14:20;;;;;;;1.60;0.75;;;10.10;79.00;;;;;;5040177;28;20032;-72
2021/05/09 04:16:46;;;;;;;1.98;1.10;;;10.10;78.90;;;;;;5039839;28;20491;-72
2021/05/09 04:19:12;;;;;;;1.73;0.90;;;10.20;79.00;;;;;;5039683;28;20153;-72
2021/05/09 04:21:40;;;;;;;2.95;0.90;;;10.30;78.40;;;;;;5040104;28;20112;-72
2021/05/09 04:24:06;;;;;;;1.95;1.20;;;10.30;79.10;;;;;;5040068;28;20361;-72
2021/05/09 04:26:32;;;;;;;1.55;0.80;;;10.20;79.20;;;;;;5039955;28;20051;-72
2021/05/09 04:28:58;;;;;;;3.47;0.82;;;10.20;79.10;;;;;;5039568;28;20461;-71
2021/05/09 04:31:24;;;;;;;1.83;0.90;;;10.30;79.40;;;;;;5039915;28;20029;-72
2021/05/09 04:33:49;;;;;;;4.32;0.90;;;10.30;79.10;;;;;;5039779;28;20032;-72
2021/05/09 04:36:15;;;;;;;2.53;0.90;;;10.30;79.30;;;;;;5039807;28;20018;-72
2021/05/09 04:38:41;;;;;;;3.72;0.80;;;10.30;79.70;;;;;;5039747;28;20342;-72
2021/05/09 04:41:06;;;;;;;1.33;0.75;;;10.30;79.80;;;;;;5039698;28;20095;-72
2021/05/09 04:43:34;;;;;;;1.52;0.70;;;10.30;80.30;;;;;;5039318;28;20095;-72
2021/05/09 04:45:59;;;;;;;3.10;0.80;;;10.30;80.70;;;;;;5039326;28;20025;-72
2021/05/09 04:48:25;;;;;;;2.33;1.02;;;10.40;80.30;;;;;;5039558;28;20079;-72
2021/05/09 04:50:52;;;;;;;1.20;0.80;;;10.50;81.00;;;;;;5039223;28;20033;-71
2021/05/09 04:53:36;;;;;;;1.58;0.80;;;10.60;81.30;;;;;;5039204;28;20025;-72
2021/05/09 04:56:07;;;;;;;3.28;1.05;;;10.80;80.60;;;;;;5039461;28;20030;-72
2021/05/09 04:58:34;;;;;;;2.20;0.80;;;11.00;81.00;;;;;;5039439;28;20030;-72
2021/05/09 05:01:01;;;;;;;0.80;0.52;;;11.10;79.20;;;;;;5039365;28;20048;-72
2021/05/09 05:03:28;;;;;;;2.97;0.70;;;11.30;78.20;;;;;;5039369;28;20040;-71
2021/05/09 05:05:54;;;;;;;2.58;0.80;;;11.40;74.20;;;;;;5038858;28;20037;-71
2021/05/09 05:08:20;;;;;;;3.75;0.80;;;11.60;73.90;;;;;;5038893;28;20021;-72
2021/05/09 05:10:46;;;;;;;1.58;0.80;;;11.70;74.60;;;;;;5039071;28;20026;-72
2021/05/09 05:13:24;;;;;;;4.00;0.68;;;11.90;71.80;;;;;;5038887;28;20033;-72
2021/05/09 05:15:51;;;;;;;1.73;0.70;;;12.00;70.30;;;;;;5039012;28;20026;-72
2021/05/09 05:18:18;;;;;;;1.88;0.60;;;12.20;70.50;;;;;;5038293;28;20049;-72
2021/05/09 05:20:45;;;;;;;1.48;0.80;;;12.30;70.80;;;;;;5038692;28;20025;-72
2021/05/09 05:23:12;;;;;;;2.40;0.77;;;12.30;71.70;;;;;;5038994;28;20377;-72
2021/05/09 05:25:38;;;;;;;1.55;0.73;;;12.30;73.20;;;;;;5038882;28;20039;-72
2021/05/09 05:28:04;;;;;;;2.10;0.95;;;12.30;72.60;;;;;;5038554;28;20421;-72
2021/05/09 05:30:31;;;;;;;2.25;0.90;;;12.30;71.50;;;;;;5038770;28;20105;-72
2021/05/09 05:32:59;;;;;;;2.72;1.10;;;12.30;71.80;;;;;;5038459;28;20030;-72
2021/05/09 05:35:26;;;;;;;1.75;0.60;;;12.40;73.60;;;;;;5038642;28;20022;-72
2021/05/09 05:37:56;;;;;;;5.32;0.63;;;12.40;74.20;;;;;;5038645;28;20021;-72
2021/05/09 05:40:23;;;;;;;2.22;0.60;;;12.50;74.70;;;;;;5038298;28;20033;-72
2021/05/09 05:42:49;;;;;;;3.63;0.80;;;12.50;74.30;;;;;;5038292;28;20087;-72
2021/05/09 05:45:15;;;;;;;2.90;1.15;;;12.60;73.20;;;;;;5038195;28;20026;-72
2021/05/09 05:47:41;;;;;;;2.75;0.80;;;12.60;73.50;;;;;;5038128;28;20037;-72
2021/05/09 05:50:08;;;;;;;2.08;0.82;;;12.60;72.20;;;;;;5038021;28;20025;-72
2021/05/09 05:52:34;;;;;;;1.88;0.63;;;12.60;71.80;;;;;;5038363;28;20024;-72
2021/05/09 05:55:00;;;;;;;1.45;0.77;;;12.70;71.30;;;;;;5037935;28;20410;-72
2021/05/09 05:57:26;;;;;;;1.20;0.70;;;12.70;73.40;;;;;;5037993;28;20037;-72
2021/05/09 05:59:52;;;;;;;1.60;0.70;;;12.80;72.40;;;;;;5038285;28;20025;-72
2021/05/09 06:02:18;;;;;;;1.63;0.70;;;12.90;72.50;;;;;;5038232;28;20091;-72
2021/05/09 06:04:44;;;;;;;3.45;1.00;;;13.00;71.90;;;;;;5038100;28;20044;-72
2021/05/09 06:07:12;;;;;;;3.05;1.00;;;13.20;73.60;;;;;;5038091;28;20029;-72
2021/05/09 06:09:38;;;;;;;2.70;1.30;;;13.30;71.70;;;;;;5037971;28;20033;-72
2021/05/09 06:12:05;;;;;;;4.25;1.25;;;13.30;69.10;;;;;;5037735;28;20060;-72
2021/05/09 06:14:31;;;;;;;1.92;1.20;;;13.30;69.20;;;;;;5037901;28;20022;-72
2021/05/09 06:16:56;;;;;;;2.70;1.50;;;13.40;68.50;;;;;;5037878;28;20029;-72
2021/05/09 06:19:22;;;;;;;2.17;1.05;;;13.80;68.60;;;;;;5037342;28;20095;-72
2021/05/09 06:21:48;;;;;;;2.17;1.25;;;14.40;68.80;;;;;;5037859;28;20083;-72
2021/05/09 06:24:14;;;;;;;2.05;1.15;;;15.00;67.70;;;;;;5037311;28;20037;-71
2021/05/09 06:26:40;;;;;;;4.05;1.13;;;15.90;66.90;;;;;;5037413;28;20040;-72
2021/05/09 06:29:06;;;;;;;3.10;1.50;;;16.80;67.40;;;;;;5036951;28;20036;-72
2021/05/09 06:31:32;;;;;;;3.92;1.50;;;17.80;60.80;;;;;;5037110;28;20107;-72
2021/05/09 06:33:58;;;;;;;2.03;1.30;;;18.60;59.20;;;;;;5037553;28;20087;-72
2021/05/09 06:36:24;;;;;;;2.50;1.55;;;19.20;56.90;;;;;;5037258;28;20025;-72
2021/05/09 06:38:50;;;;;;;1.70;1.30;;;19.90;56.80;;;;;;5037200;28;20032;-72
2021/05/09 06:41:18;;;;;;;3.17;1.83;;;20.70;55.70;;;;;;5037537;28;20057;-72
2021/05/09 06:43:44;;;;;;;3.75;1.20;;;21.20;53.20;;;;;;5037053;28;20040;-72
2021/05/09 06:46:09;;;;;;;1.48;1.00;;;21.60;53.50;;;;;;5037091;28;20060;-72
2021/05/09 06:48:35;;;;;;;2.65;1.10;;;21.70;52.10;;;;;;5037344;28;20045;-72
2021/05/09 06:51:02;;;;;;;2.45;1.02;;;21.80;51.80;;;;;;5037324;28;20420;-72
2021/05/09 06:53:28;;;;;;;2.17;1.10;;;21.90;50.60;;;;;;5037371;28;20026;-72
2021/05/09 06:55:58;;;;;;;3.00;1.30;;;21.90;52.50;;;;;;5035884;28;20329;-72
2021/05/09 06:58:23;;;;;;;3.25;1.40;;;22.00;50.40;;;;;;5037240;28;20025;-72
2021/05/09 07:00:50;;;;;;;5.03;1.33;;;21.90;51.50;;;;;;5037204;28;20321;-72
2021/05/09 07:03:16;;;;;;;2.88;1.30;;;22.00;50.80;;;;;;5036912;28;20028;-72
2021/05/09 07:05:43;;;;;;;3.75;1.50;;;22.40;50.00;;;;;;5037044;28;20387;-72
2021/05/09 07:08:09;;;;;;;2.55;1.83;;;22.50;51.90;;;;;;5037114;28;20021;-72
2021/05/09 07:10:36;;;;;;;3.15;1.25;;;22.50;49.70;;;;;;5036910;28;20295;-72
2021/05/09 07:13:03;;;;;;;2.45;1.17;;;22.30;50.60;;;;;;5037074;28;20314;-72
2021/05/09 07:15:37;;;;;;;1.63;1.17;;;22.10;52.00;;;;;;5036935;28;20133;-72
2021/05/09 07:18:09;;;;;;;1.98;1.02;;;22.00;51.60;;;;;;5036451;28;20057;-72
2021/05/09 07:20:37;;;;;;;3.28;1.45;;;22.10;52.30;;;;;;5036962;28;20034;-72
2021/05/09 07:23:05;;;;;;;4.00;1.45;;;22.10;50.90;;;;;;5036955;28;20326;-72
2021/05/09 07:25:31;;;;;;;2.38;1.23;;;22.30;51.00;;;;;;5036567;28;20117;-72
2021/05/09 07:28:11;;;;;;;3.20;1.27;;;22.70;51.00;;;;;;5036588;28;20036;-72
2021/05/09 07:30:39;;;;;;;4.75;1.33;;;22.50;51.00;;;;;;5036753;28;20022;-72
2021/05/09 07:33:05;;;;;;;3.20;1.17;;;22.60;50.70;;;;;;5036518;28;20026;-72
2021/05/09 07:35:31;;;;;;;3.22;1.30;;;22.70;49.90;;;;;;5036689;28;20021;-72
2021/05/09 07:38:00;;;;;;;5.10;2.08;;;22.80;50.90;;;;;;5036496;28;20346;-72
2021/05/09 07:40:26;;;;;;;3.45;1.30;;;22.60;51.80;;;;;;5036472;28;20430;-72
2021/05/09 07:42:52;;;;;;;1.48;1.00;;;22.50;51.80;;;;;;5040889;28;20032;-72
2021/05/09 07:45:20;;;;;;;4.57;1.85;;;22.40;52.40;;;;;;5040716;28;20029;-72
2021/05/09 07:47:46;;;;;;;2.40;1.73;;;22.50;50.40;;;;;;5040401;28;20038;-72
2021/05/09 07:50:13;;;;;;;2.40;1.45;;;22.80;49.00;;;;;;5040487;28;20321;-72
2021/05/09 07:52:39;;;;;;;1.88;1.23;;;22.80;50.20;;;;;;5040527;28;20025;-72
2021/05/09 07:55:06;;;;;;;2.30;1.40;;;23.30;50.30;;;;;;5040506;28;20057;-72
2021/05/09 07:57:32;;;;;;;4.80;1.10;;;23.70;50.30;;;;;;5040124;28;20025;-72
2021/05/09 07:59:57;;;;;;;4.88;1.20;;;23.70;48.20;;;;;;5040229;28;20330;-72
2021/05/09 08:02:23;;;;;;;5.45;1.27;;;23.80;49.50;;;;;;5040468;28;20026;-72
2021/05/09 08:04:49;;;;;;;2.13;1.48;;;23.90;50.10;;;;;;5040394;28;20109;-72
2021/05/09 08:07:14;;;;;;;4.32;2.00;;;23.80;51.40;;;;;;5040399;28;20445;-72
2021/05/09 08:09:40;;;;;;;3.97;1.52;;;24.00;49.90;;;;;;5040259;28;20032;-72
2021/05/09 08:12:06;;;;;;;4.95;1.80;;;23.70;50.70;;;;;;5040027;28;20057;-72
2021/05/09 08:14:32;;;;;;;2.92;1.65;;;23.70;49.30;;;;;;5040190;28;20013;-72
2021/05/09 08:16:58;;;;;;;3.10;1.83;;;23.60;51.70;;;;;;5040203;28;20045;-71
2021/05/09 08:19:24;;;;;;;3.45;1.90;;;23.50;50.50;;;;;;5039755;28;20061;-71
2021/05/09 08:21:50;;;;;;;2.92;1.50;;;23.30;52.20;;;;;;5039836;28;20033;-71
2021/05/09 08:24:17;;;;;;;3.47;1.80;;;23.30;50.60;;;;;;5040071;28;20090;-72
2021/05/09 08:26:43;;;;;;;2.95;1.55;;;23.40;50.80;;;;;;5039727;28;20040;-71
2021/05/09 08:29:09;;;;;;;1.88;1.30;;;23.50;49.70;;;;;;5039890;28;20022;-71
2021/05/09 08:31:36;;;;;;;4.20;1.58;;;23.60;52.10;;;;;;5039622;28;20029;-72
2021/05/09 08:34:02;;;;;;;3.53;1.50;;;23.70;51.70;;;;;;5039524;28;20414;-71
2021/05/09 08:36:28;;;;;;;3.20;1.45;;;24.00;51.80;;;;;;5039854;28;20052;-71
2021/05/09 08:38:54;;;;;;;3.17;2.00;;;23.80;51.60;;;;;;5039814;28;20030;-71
2021/05/09 08:41:19;;;;;;;3.20;1.90;;;23.80;49.60;;;;;;5039476;28;20424;-71
2021/05/09 08:43:45;;;;;;;3.00;1.67;;;23.80;48.90;;;;;;5039352;28;20025;-71
2021/05/09 08:46:14;;;;;;;2.80;1.77;;;24.00;50.50;;;;;;5039621;28;20032;-71
2021/05/09 08:48:41;;;;;;;5.00;1.80;;;24.10;48.40;;;;;;5039239;28;20022;-71
2021/05/09 08:51:07;;;;;;;5.00;2.22;;;24.30;50.70;;;;;;5039234;28;20037;-72
2021/05/09 08:53:33;;;;;;;4.65;2.00;;;24.10;49.90;;;;;;5038893;28;20029;-72
2021/05/09 08:55:59;;;;;;;4.68;1.90;;;24.30;49.30;;;;;;5039184;28;20044;-72
2021/05/09 08:58:25;;;;;;;2.35;2.00;;;24.40;48.80;;;;;;5039148;28;20018;-71
2021/05/09 09:00:51;;;;;;;3.38;1.95;;;24.70;48.80;;;;;;5039026;28;20025;-71
2021/05/09 09:03:17;;;;;;;4.40;2.05;;;24.70;49.40;;;;;;5039346;28;20104;-72
2021/05/09 09:05:45;;;;;;;3.90;2.58;;;24.90;46.60;;;;;;5039215;28;20037;-72
2021/05/09 09:08:12;;;;;;;6.43;2.10;;;24.90;47.50;;;;;;5039230;28;20025;-72
2021/05/09 09:10:49;;;;;;;3.42;1.77;;;25.00;47.50;;;;;;5038787;28;20429;-72
2021/05/09 09:13:41;;;;;;;4.97;2.35;;;25.30;48.10;;;;;;5039149;28;20410;-72
2021/05/09 09:16:07;;;;;;;7.15;2.20;;;25.30;47.10;;;;;;5038741;28;20064;-72
2021/05/09 09:18:42;;;;;;;2.75;2.15;;;25.40;48.60;;;;;;5038575;28;20338;-72
2021/05/09 09:21:28;;;;;;;2.88;2.05;;;25.30;47.00;;;;;;5038651;28;20036;-71
2021/05/09 09:24:03;;;;;;;4.88;2.17;;;25.20;49.50;;;;;;5039056;28;20095;-71
2021/05/09 09:26:31;;;;;;;4.22;2.40;;;25.30;46.60;;;;;;5038611;28;20160;-71
2021/05/09 09:28:59;;;;;;;5.47;2.28;;;25.20;48.20;;;;;;5038798;28;20029;-71
2021/05/09 09:31:44;;;;;;;3.53;2.28;;;25.30;46.80;;;;;;5038850;28;20433;-72
2021/05/09 09:34:11;;;;;;;5.32;1.95;;;25.10;49.90;;;;;;5038710;28;20025;-71
2021/05/09 09:36:38;;;;;;;5.80;2.10;;;24.80;46.40;;;;;;5038696;28;20037;-71
2021/05/09 09:39:07;;;;;;;4.47;1.98;;;24.70;45.10;;;;;;5038553;28;20028;-72
2021/05/09 09:41:33;;;;;;;4.40;1.85;;;24.90;46.10;;;;;;5038161;28;20029;-71
2021/05/09 09:44:11;;;;;;;3.35;1.98;;;24.80;51.10;;;;;;5038318;28;20029;-72
2021/05/09 09:46:42;;;;;;;3.67;2.00;;;25.20;47.90;;;;;;5038200;28;20036;-72
2021/05/09 09:49:27;;;;;;;3.58;2.05;;;25.60;46.90;;;;;;5038400;28;20029;-72
2021/05/09 09:52:01;;;;;;;2.67;1.90;;;25.40;44.10;;;;;;5038431;28;20049;-72
2021/05/09 09:54:35;;;;;;;4.95;2.15;;;25.30;45.30;;;;;;5038374;28;20414;-71
2021/05/09 09:57:04;;;;;;;2.73;1.73;;;25.20;48.90;;;;;;5038216;28;20029;-72
2021/05/09 09:59:30;;;;;;;4.13;2.47;;;25.30;49.50;;;;;;5038162;28;20260;-71
2021/05/09 10:01:57;;;;;;;2.90;2.10;;;25.20;47.30;;;;;;5038121;28;20445;-71
2021/05/09 10:04:23;;;;;;;3.05;2.30;;;25.10;50.10;;;;;;5037110;28;20037;-71
2021/05/09 10:06:48;;;;;;;4.65;2.22;;;25.20;49.00;;;;;;5038092;28;20022;-72
2021/05/09 10:09:14;;;;;;;3.83;2.42;;;25.30;49.70;;;;;;5036674;28;20029;-72
2021/05/09 10:11:40;;;;;;;4.18;2.35;;;25.20;45.50;;;;;;5037966;28;20013;-72
2021/05/09 10:14:06;;;;;;;5.10;2.28;;;25.10;48.20;;;;;;5037016;28;20408;-72
2021/05/09 10:16:34;;;;;;;4.22;2.38;;;25.20;46.90;;;;;;5041787;28;20025;-72
2021/05/09 10:19:06;;;;;;;5.97;2.58;;;25.30;46.60;;;;;;5053077;28;20049;-72
2021/05/09 10:21:37;;;;;;;5.05;2.30;;;25.00;47.30;;;;;;5057509;28;20436;-72
2021/05/09 10:24:17;;;;;;;6.78;2.60;;;25.00;48.20;;;;;;5057671;28;20313;-72
2021/05/09 10:27:07;;;;;;;3.70;2.13;;;25.20;51.20;;;;;;5073231;28;20415;-71
2021/05/09 10:29:34;;;;;;;4.80;2.28;;;24.60;46.80;;;;;;5069113;28;20059;-71
2021/05/09 10:32:06;;;;;;;3.42;2.20;;;24.50;49.80;;;;;;5074038;28;20368;-71
2021/05/09 10:34:57;;;;;;;3.25;1.95;;;24.80;49.30;;;;;;5065402;28;20107;-71
2021/05/09 10:40:18;;;;;;;3.10;2.08;;;25.10;54.90;;;;;;5050053;28;20034;-71
2021/05/09 10:42:44;;;;;;;4.88;2.20;;;25.40;54.20;;;;;;5053773;28;20044;-71
2021/05/09 10:45:11;;;;;;;3.20;2.10;;;25.70;48.10;;;;;;5053325;28;20078;-71
2021/05/09 10:47:37;;;;;;;2.72;1.80;;;25.20;47.50;;;;;;5053977;28;20029;-71
2021/05/09 10:50:14;;;;;;;3.55;1.90;;;25.10;51.30;;;;;;5053507;28;20437;-71
2021/05/09 10:52:45;;;;;;;2.83;1.80;;;25.20;50.00;;;;;;5053582;28;20041;-71
2021/05/09 10:55:35;;;;;;;4.60;2.17;;;25.30;46.10;;;;;;5053399;28;20036;-71
2021/05/09 10:58:05;;;;;;;3.00;1.90;;;25.50;47.40;;;;;;5053437;28;20448;-71
2021/05/09 11:00:56;;;;;;;2.40;1.65;;;25.10;48.10;;;;;;5053699;28;20031;-71
2021/05/09 11:03:37;;;;;;;5.13;1.83;;;25.00;49.00;;;;;;5053456;28;20483;-71
2021/05/09 11:06:04;;;;;;;2.40;2.20;;;25.10;53.90;;;;;;5053195;28;20036;-71
2021/05/09 11:08:42;;;;;;;3.38;1.63;;;25.10;50.30;;;;;;5053283;28;20060;-71
2021/05/09 11:11:29;;;;;;;3.30;1.83;;;25.20;51.00;;;;;;5053168;28;20025;-71
2021/05/09 11:13:58;;;;;;;3.30;2.20;;;25.20;47.80;;;;;;5053434;28;20033;-72
2021/05/09 11:16:33;;;;;;;2.97;2.22;;;24.90;47.30;;;;;;5053081;28;20100;-72
2021/05/09 11:19:08;;;;;;;;;;;24.50;49.60;;;;;;5053567;28;20022;-72
2021/05/09 11:21:43;;;;;;;3.70;2.00;;;24.60;56.40;;;;;;5053365;28;19951;-73
2021/05/09 11:24:11;;;;;;;2.63;1.60;;;24.60;51.80;;;;;;5053239;28;20035;-72
2021/05/09 11:26:42;;;;;;;3.63;2.00;;;24.70;49.00;;;;;;5052636;28;20103;-73
2021/05/09 11:29:11;;;;;;;3.08;1.90;;;24.50;50.30;;;;;;5052942;28;20025;-70
2021/05/09 11:31:42;;;;;;;2.75;2.00;;;24.40;53.00;;;;;;5053142;28;20053;-71
2021/05/09 11:34:09;;;;;;;4.18;1.88;;;24.30;50.80;;;;;;5053083;28;20087;-73
2021/05/09 11:36:37;;;;;;;5.07;1.80;;;24.20;54.90;;;;;;5048639;28;20057;-72
2021/05/09 11:39:09;;;;;;;4.28;1.90;;;24.00;53.10;;;;;;5039688;28;20021;-73
2021/05/09 11:41:58;;;;;;;2.38;1.52;;;23.90;52.10;;;;;;5039406;28;20033;-72
2021/05/09 11:44:43;;;;;;;4.47;1.98;;;24.00;53.10;;;;;;5039493;28;20029;-73
2021/05/09 11:47:12;;;;;;;1.83;1.65;;;23.80;49.70;;;;;;5039675;28;20033;-72
2021/05/09 11:49:39;;;;;;;5.75;2.00;;;23.40;55.10;;;;;;5039509;28;20017;-72
2021/05/09 11:52:13;;;;;;;2.42;1.60;;;23.30;52.40;;;;;;5039560;28;20104;-72
2021/05/09 11:54:45;;;;;;;3.17;1.55;;;23.20;56.80;;;;;;5039065;28;20048;-73
2021/05/09 11:57:11;;;;;;;4.28;2.00;;;23.10;58.30;;;;;;5039387;28;20326;-72
2021/05/09 11:59:41;;;;;;;4.88;1.88;;;23.10;55.50;;;;;;5039046;28;20017;-72
2021/05/09 12:02:12;;;;;;;3.83;1.52;;;23.10;55.40;;;;;;5039353;28;20049;-72
2021/05/09 12:04:39;;;;;;;3.03;1.55;;;22.80;56.90;;;;;;5038806;28;20112;-72
2021/05/09 12:07:08;;;;;;;6.10;2.58;;;22.80;58.70;;;;;;5038881;28;20025;-72
2021/05/09 12:09:34;;;;;;;3.22;1.75;;;22.80;60.20;;;;;;5039160;28;20022;-72
2021/05/09 12:12:01;;;;;;;2.53;1.63;;;22.80;57.80;;;;;;5039166;28;20091;-72
2021/05/09 12:14:28;;;;;;;2.55;1.60;;;22.70;58.30;;;;;;5038715;28;20415;-72
2021/05/09 12:16:54;;;;;;;4.00;2.08;;;22.40;55.00;;;;;;5038729;28;20026;-72
2021/05/09 12:19:32;;;;;;;2.90;1.75;;;22.30;56.90;;;;;;5039016;28;20029;-72
2021/05/09 12:21:58;;;;;;;2.55;1.63;;;22.10;55.80;;;;;;5038968;28;20022;-72
2021/05/09 12:24:24;;;;;;;2.30;1.40;;;21.90;57.90;;;;;;5038508;28;20329;-72
2021/05/09 12:27:07;;;;;;;3.22;1.55;;;21.90;57.90;;;;;;5038871;28;20103;-72
2021/05/09 12:29:49;;;;;;;7.25;1.90;;;21.90;57.50;;;;;;5038516;28;20033;-72
2021/05/09 12:32:23;;;;;;;4.53;1.58;;;21.90;56.80;;;;;;5038306;28;20372;-72
2021/05/09 12:35:08;;;;;;;1.88;1.30;;;21.80;59.10;;;;;;5038723;28;20104;-72
2021/05/09 12:37:54;;;;;;;2.63;1.42;;;21.80;61.70;;;;;;5038686;28;20087;-72
2021/05/09 12:40:22;;;;;;;3.40;1.50;;;21.80;58.40;;;;;;5031048;28;20025;-72
2021/05/09 12:42:53;;;;;;;2.95;1.52;;;21.80;60.80;;;;;;5038655;28;20366;-72
2021/05/09 12:45:36;;;;;;;2.60;1.60;;;21.80;57.10;;;;;;5037089;28;20030;-72
2021/05/09 12:48:07;;;;;;;4.20;1.80;;;21.80;57.80;;;;;;5037854;28;20048;-72
2021/05/09 12:50:59;;;;;;;3.13;1.70;;;21.60;55.30;;;;;;5037948;28;20049;-72
2021/05/09 12:53:50;;;;;;;2.13;1.40;;;21.20;59.40;;;;;;5038067;28;20026;-72
2021/05/09 12:56:19;;;;;;;4.18;1.70;;;21.20;60.00;;;;;;5038440;28;20021;-72